createdAt,value
2022-08-14T00:00:23.580Z,101278.13
2022-08-14T00:02:54.356Z,101275.56
2022-08-14T00:05:25.407Z,101280.63
2022-08-14T00:07:56.811Z,101289.44
2022-08-14T00:10:49.786Z,101293.38
2022-08-14T00:13:20.210Z,101282.69
2022-08-14T00:15:50.931Z,101277.00
2022-08-14T00:19:05.308Z,101283.56
2022-08-14T00:21:15.627Z,101290.97
2022-08-14T00:23:54.088Z,101282.41
2022-08-14T00:26:25.450Z,101283.56
2022-08-14T00:28:56.078Z,101288.69
2022-08-14T00:31:43.958Z,101302.44
2022-08-14T00:34:37.376Z,101292.69
2022-08-14T00:37:07.307Z,101290.25
2022-08-14T00:39:38.364Z,101295.72
2022-08-14T00:42:21.438Z,101298.94
2022-08-14T00:44:59.578Z,101296.94
2022-08-14T00:47:30.753Z,101293.34
2022-08-14T00:50:17.779Z,101302.53
2022-08-14T00:52:53.360Z,101301.72
2022-08-14T00:55:24.232Z,101291.75
2022-08-14T00:58:12.421Z,101285.91
2022-08-14T01:00:50.918Z,101295.84
2022-08-14T01:03:24.010Z,101288.72
2022-08-14T01:05:55.856Z,101286.53
2022-08-14T01:08:52.450Z,101276.94
2022-08-14T01:11:21.262Z,101290.31
2022-08-14T01:13:56.131Z,101291.56
2022-08-14T01:16:34.504Z,101287.84
2022-08-14T01:19:23.138Z,101283.94
2022-08-14T01:21:54.045Z,101284.25
2022-08-14T01:24:30.784Z,101295.72
2022-08-14T01:27:07.204Z,101307.81
2022-08-14T01:29:58.733Z,101306.91
2022-08-14T01:32:30.030Z,101299.47
2022-08-14T01:35:19.193Z,101302.41
2022-08-14T01:37:56.147Z,101310.50
2022-08-14T01:40:36.956Z,101300.63
2022-08-14T01:43:21.963Z,101307.00
2022-08-14T01:46:06.176Z,101303.84
2022-08-14T01:48:37.891Z,101298.88
2022-08-14T01:51:19.463Z,101304.09
2022-08-14T01:53:58.117Z,101308.03
2022-08-14T01:56:40.609Z,101297.66
2022-08-14T01:59:22.119Z,101298.41
2022-08-14T02:01:59.310Z,101297.66
2022-08-14T02:04:54.592Z,101293.75
2022-08-14T02:07:44.845Z,101289.28
2022-08-14T02:10:16.253Z,101285.31
2022-08-14T02:12:56.842Z,101291.47
2022-08-14T02:15:28.069Z,101291.69
2022-08-14T02:17:58.675Z,101283.53
2022-08-14T02:20:36.173Z,101284.03
2022-08-14T02:23:08.183Z,101276.22
2022-08-14T02:25:39.704Z,101289.03
2022-08-14T02:28:25.937Z,101289.53
2022-08-14T02:31:02.962Z,101281.38
2022-08-14T02:33:34.507Z,101278.88
2022-08-14T02:37:02.486Z,101270.50
2022-08-14T02:39:01.402Z,101272.53
2022-08-14T02:41:36.771Z,101270.53
2022-08-14T02:44:11.966Z,101273.78
2022-08-14T02:46:49.728Z,101268.59
2022-08-14T02:49:25.350Z,101268.09
2022-08-14T02:51:56.848Z,101265.59
2022-08-14T02:54:29.072Z,101267.09
2022-08-14T02:57:15.982Z,101257.22
2022-08-14T02:59:53.096Z,101256.47
2022-08-14T03:02:49.148Z,101258.22
2022-08-14T03:05:13.581Z,101251.53
2022-08-14T03:07:45.878Z,101247.88
2022-08-14T03:10:25.544Z,101241.47
2022-08-14T03:12:58.399Z,101243.69
2022-08-14T03:15:28.612Z,101249.63
2022-08-14T03:17:58.998Z,101247.13
2022-08-14T03:20:31.248Z,101252.81
2022-08-14T03:23:02.959Z,101255.25
2022-08-14T03:25:37.808Z,101253.31
2022-08-14T03:28:14.871Z,101252.09
2022-08-14T03:31:00.416Z,101252.47
2022-08-14T03:33:38.042Z,101251.06
2022-08-14T03:37:52.216Z,101260.88
2022-08-14T03:39:15.691Z,101260.19
2022-08-14T03:42:00.044Z,101257.25
2022-08-14T03:45:26.232Z,101253.94
2022-08-14T03:47:46.119Z,101251.28
2022-08-14T03:50:27.474Z,101252.84
2022-08-14T03:53:00.682Z,101259.66
2022-08-14T03:55:31.979Z,101260.03
2022-08-14T03:58:04.082Z,101261.38
2022-08-14T04:00:42.856Z,101264.81
2022-08-14T04:03:23.543Z,101251.16
2022-08-14T04:05:56.386Z,101258.38
2022-08-14T04:08:30.792Z,101252.50
2022-08-14T04:11:07.843Z,101246.22
2022-08-14T04:13:43.431Z,101254.16
2022-08-14T04:16:22.331Z,101251.00
2022-08-14T04:18:58.888Z,101256.16
2022-08-14T04:21:39.836Z,101254.25
2022-08-14T04:24:21.223Z,101252.41
2022-08-14T04:26:56.297Z,101243.28
2022-08-14T04:29:27.100Z,101242.91
2022-08-14T04:33:10.256Z,101250.38
2022-08-14T04:34:52.091Z,101254.91
2022-08-14T04:37:45.241Z,101241.94
2022-08-14T04:40:35.319Z,101247.97
2022-08-14T04:43:38.337Z,101251.13
2022-08-14T04:46:56.378Z,101249.41
2022-08-14T04:49:08.154Z,101231.84
2022-08-14T04:51:46.690Z,101235.94
2022-08-14T04:54:18.741Z,101240.69
2022-08-14T04:56:48.718Z,101240.31
2022-08-14T04:59:19.090Z,101255.44
2022-08-14T05:01:52.815Z,101248.63
2022-08-14T05:04:26.063Z,101241.56
2022-08-14T05:06:56.757Z,101232.88
2022-08-14T05:09:29.161Z,101226.69
2022-08-14T05:13:08.354Z,101238.56
2022-08-14T05:14:55.542Z,101225.72
2022-08-14T05:17:32.005Z,101232.25
2022-08-14T05:21:05.048Z,101223.13
2022-08-14T05:23:05.598Z,101223.06
2022-08-14T05:25:41.379Z,101214.91
2022-08-14T05:28:20.685Z,101222.41
2022-08-14T05:30:53.373Z,101219.44
2022-08-14T05:33:26.919Z,101215.72
2022-08-14T05:36:03.603Z,101214.28
2022-08-14T05:38:38.131Z,101211.03
2022-08-14T05:41:10.646Z,101209.09
2022-08-14T05:43:42.531Z,101198.66
2022-08-14T05:46:16.338Z,101206.13
2022-08-14T05:48:51.515Z,101205.09
2022-08-14T05:51:23.678Z,101200.38
2022-08-14T05:54:01.404Z,101194.56
2022-08-14T05:56:43.185Z,101199.41
2022-08-14T05:59:17.419Z,101193.69
2022-08-14T06:01:50.494Z,101195.50
2022-08-14T06:04:22.370Z,101190.94
2022-08-14T06:06:54.931Z,101186.84
2022-08-14T06:09:28.479Z,101185.59
2022-08-14T06:12:05.606Z,101172.88
2022-08-14T06:14:39.353Z,101184.72
2022-08-14T06:17:09.495Z,101164.63
2022-08-14T06:19:46.274Z,101169.66
2022-08-14T06:22:19.270Z,101160.94
2022-08-14T06:24:50.200Z,101163.03
2022-08-14T06:27:21.392Z,101156.25
2022-08-14T06:29:54.035Z,101148.38
2022-08-14T06:32:37.716Z,101155.91
2022-08-14T06:35:13.470Z,101142.88
2022-08-14T06:37:46.950Z,101147.03
2022-08-14T06:40:27.890Z,101140.03
2022-08-14T06:43:03.620Z,101141.38
2022-08-14T06:45:35.027Z,101144.97
2022-08-14T06:48:17.329Z,101135.16
2022-08-14T06:50:49.170Z,101141.31
2022-08-14T06:53:20.953Z,101126.81
2022-08-14T06:55:58.103Z,101127.81
2022-08-14T06:58:31.382Z,101130.81
2022-08-14T07:01:26.843Z,101139.19
2022-08-14T07:04:23.643Z,101127.28
2022-08-14T07:06:59.528Z,101115.84
2022-08-14T07:09:43.840Z,101128.00
2022-08-14T07:12:54.556Z,101133.91
2022-08-14T07:15:11.776Z,101125.00
2022-08-14T07:17:51.994Z,101111.22
2022-08-14T07:20:30.930Z,101103.72
2022-08-14T07:23:08.547Z,101109.63
2022-08-14T07:25:43.905Z,101112.97
2022-08-14T07:28:21.468Z,101115.59
2022-08-14T07:31:04.855Z,101106.59
2022-08-14T07:33:50.715Z,101112.53
2022-08-14T07:36:27.090Z,101107.38
2022-08-14T07:39:02.814Z,101100.94
2022-08-14T07:41:35.899Z,101089.50
2022-08-14T07:44:28.769Z,101095.19
2022-08-14T07:46:57.014Z,101098.16
2022-08-14T07:49:29.808Z,101089.22
2022-08-14T07:52:03.917Z,101087.16
2022-08-14T07:54:34.554Z,101087.69
2022-08-14T07:57:11.982Z,101084.56
2022-08-14T07:59:44.406Z,101076.56
2022-08-14T08:02:20.551Z,101089.84
2022-08-14T08:04:59.324Z,101084.88
2022-08-14T08:07:32.387Z,101082.16
2022-08-14T08:11:01.322Z,101079.56
2022-08-14T08:13:24.110Z,101077.75
2022-08-14T08:16:00.597Z,101079.06
2022-08-14T08:18:31.256Z,101083.84
2022-08-14T08:21:04.583Z,101084.81
2022-08-14T08:23:40.819Z,101079.19
2022-08-14T08:26:21.582Z,101075.19
2022-08-14T08:29:00.030Z,101078.47
2022-08-14T08:31:33.042Z,101075.84
2022-08-14T08:34:14.419Z,101078.91
2022-08-14T08:36:49.049Z,101081.91
2022-08-14T08:39:22.524Z,101077.91
2022-08-14T08:41:53.979Z,101082.38
2022-08-14T08:44:34.538Z,101082.22
2022-08-14T08:47:11.242Z,101079.25
2022-08-14T08:49:52.876Z,101087.47
2022-08-14T08:52:31.260Z,101079.31
2022-08-14T08:55:04.569Z,101084.22
2022-08-14T08:57:38.124Z,101084.28
2022-08-14T09:00:25.042Z,101086.75
2022-08-14T09:03:03.355Z,101082.31
2022-08-14T09:05:37.062Z,101077.16
2022-08-14T09:08:30.531Z,101081.13
2022-08-14T09:11:19.443Z,101077.63
2022-08-14T09:13:54.141Z,101078.97
2022-08-14T09:16:26.635Z,101081.53
2022-08-14T09:18:57.534Z,101080.28
2022-08-14T09:21:31.068Z,101080.00
2022-08-14T09:24:26.453Z,101082.50
2022-08-14T09:26:54.026Z,101073.56
2022-08-14T09:29:24.537Z,101092.47
2022-08-14T09:32:04.475Z,101084.22
2022-08-14T09:35:14.293Z,101065.41
2022-08-14T09:38:07.467Z,101085.44
2022-08-14T09:41:17.779Z,101080.09
2022-08-14T09:43:55.259Z,101083.63
2022-08-14T09:46:29.658Z,101089.13
2022-08-14T09:49:16.538Z,101087.19
2022-08-14T09:51:51.900Z,101081.41
2022-08-14T09:54:41.733Z,101083.34
2022-08-14T09:57:15.132Z,101087.25
2022-08-14T09:59:50.386Z,101098.00
2022-08-14T10:02:35.215Z,101088.47
2022-08-14T10:05:11.168Z,101093.31
2022-08-14T10:07:53.501Z,101097.63
2022-08-14T10:10:40.298Z,101091.94
2022-08-14T10:13:28.004Z,101091.63
2022-08-14T10:16:25.731Z,101102.91
2022-08-14T10:19:10.031Z,101090.16
2022-08-14T10:21:58.218Z,101082.72
2022-08-14T10:24:42.124Z,101088.03
2022-08-14T10:27:17.918Z,101095.31
2022-08-14T10:29:58.322Z,101094.44
2022-08-14T10:32:40.385Z,101102.81
2022-08-14T10:35:23.187Z,101093.13
2022-08-14T10:38:02.880Z,101091.34
2022-08-14T10:40:44.801Z,101086.44
2022-08-14T10:43:31.931Z,101096.06
2022-08-14T10:46:03.590Z,101093.63
2022-08-14T10:49:04.863Z,101101.56
2022-08-14T10:51:39.677Z,101109.38
2022-08-14T10:54:26.221Z,101109.53
2022-08-14T10:57:22.953Z,101112.75
2022-08-14T10:59:56.819Z,101106.75
2022-08-14T11:02:50.316Z,101108.16
2022-08-14T11:05:28.550Z,101113.47
2022-08-14T11:08:01.945Z,101111.94
2022-08-14T11:10:47.630Z,101114.56
2022-08-14T11:13:31.175Z,101111.19
2022-08-14T11:16:06.101Z,101117.81
2022-08-14T11:18:40.396Z,101116.63
2022-08-14T11:21:11.227Z,101119.25
2022-08-14T11:23:44.105Z,101125.16
2022-08-14T11:26:16.782Z,101125.47
2022-08-14T11:28:50.667Z,101136.22
2022-08-14T11:31:25.085Z,101140.84
2022-08-14T11:33:59.304Z,101149.75
2022-08-14T11:36:57.040Z,101149.09
2022-08-14T11:39:34.239Z,101150.31
2022-08-14T11:43:07.948Z,101155.88
2022-08-14T11:45:01.311Z,101147.50
2022-08-14T11:47:43.954Z,101147.50
2022-08-14T11:50:36.111Z,101151.53
2022-08-14T11:53:09.385Z,101143.53
2022-08-14T11:55:44.159Z,101151.91
2022-08-14T11:58:24.195Z,101137.88
2022-08-14T12:01:05.109Z,101143.63
2022-08-14T12:03:46.832Z,101152.81
2022-08-14T12:06:29.827Z,101138.53
2022-08-14T12:09:14.835Z,101126.78
2022-08-14T12:11:46.753Z,101139.44
2022-08-14T12:14:30.118Z,101142.38
2022-08-14T12:17:12.331Z,101149.81
2022-08-14T12:19:56.861Z,101154.94
2022-08-14T12:22:42.325Z,101157.09
2022-08-14T12:25:20.473Z,101157.94
2022-08-14T12:27:54.653Z,101160.59
2022-08-14T12:30:43.280Z,101155.41
2022-08-14T12:33:32.947Z,101157.53
2022-08-14T12:36:09.231Z,101161.00
2022-08-14T12:38:43.685Z,101171.78
2022-08-14T12:41:21.919Z,101161.00
2022-08-14T12:44:08.453Z,101159.91
2022-08-14T12:46:46.848Z,101170.41
2022-08-14T12:49:19.972Z,101167.91
2022-08-14T12:52:02.263Z,101167.59
2022-08-14T12:54:32.686Z,101162.22
2022-08-14T12:57:08.346Z,101164.31
2022-08-14T12:59:43.202Z,101169.72
2022-08-14T13:02:29.659Z,101172.03
2022-08-14T13:05:00.432Z,101169.75
2022-08-14T13:07:32.714Z,101171.28
2022-08-14T13:10:45.814Z,101168.72
2022-08-14T13:13:15.508Z,101161.72
2022-08-14T13:15:47.505Z,101176.16
2022-08-14T13:18:18.849Z,101171.72
2022-08-14T13:20:57.855Z,101165.28
2022-08-14T13:23:37.405Z,101160.78
2022-08-14T13:26:09.369Z,101159.78
2022-08-14T13:29:01.465Z,101152.53
2022-08-14T13:31:35.633Z,101146.53
2022-08-14T13:34:07.284Z,101147.72
2022-08-14T13:36:54.469Z,101145.50
2022-08-14T13:39:30.802Z,101143.31
2022-08-14T13:42:13.483Z,101149.72
2022-08-14T13:44:45.406Z,101148.53
2022-08-14T13:47:16.135Z,101141.38
2022-08-14T13:49:57.427Z,101133.50
2022-08-14T13:52:51.770Z,101141.22
2022-08-14T13:55:29.094Z,101136.63
2022-08-14T13:58:04.428Z,101130.97
2022-08-14T14:00:52.118Z,101134.44
2022-08-14T14:03:30.211Z,101124.94
2022-08-14T14:06:03.730Z,101127.63
2022-08-14T14:08:45.816Z,101122.94
2022-08-14T14:11:25.190Z,101119.50
2022-08-14T14:14:01.507Z,101108.22
2022-08-14T14:16:31.879Z,101112.16
2022-08-14T14:19:08.807Z,101096.03
2022-08-14T14:21:41.777Z,101090.25
2022-08-14T14:24:15.215Z,101078.75
2022-08-14T14:26:51.109Z,101085.22
2022-08-14T14:29:24.228Z,101076.97
2022-08-14T14:31:59.019Z,101066.41
2022-08-14T14:34:35.204Z,101060.59
2022-08-14T14:37:06.911Z,101059.44
2022-08-14T14:40:52.590Z,101052.13
2022-08-14T14:42:32.424Z,101051.66
2022-08-14T14:45:16.938Z,101051.66
2022-08-14T14:47:59.212Z,101055.03
2022-08-14T14:50:29.839Z,101044.22
2022-08-14T14:53:13.054Z,101042.91
2022-08-14T14:56:46.897Z,101039.38
2022-08-14T14:58:35.946Z,101029.97
2022-08-14T15:01:10.373Z,101026.31
2022-08-14T15:03:45.130Z,101010.28
2022-08-14T15:06:17.697Z,101020.63
2022-08-14T15:08:55.719Z,101021.63
2022-08-14T15:11:30.498Z,101013.69
2022-08-14T15:14:02.874Z,101010.06
2022-08-14T15:16:52.921Z,101010.59
2022-08-14T15:19:24.422Z,100998.34
2022-08-14T15:21:55.206Z,100986.44
2022-08-14T15:24:26.919Z,100977.56
2022-08-14T15:27:00.977Z,100963.09
2022-08-14T15:29:31.680Z,100955.09
2022-08-14T15:32:01.716Z,100952.25
2022-08-14T15:34:45.344Z,100922.09
2022-08-14T15:37:23.297Z,100936.44
2022-08-14T15:39:53.866Z,100923.53
2022-08-14T15:42:25.663Z,100915.63
2022-08-14T15:45:01.430Z,100895.97
2022-08-14T15:47:33.849Z,100902.22
2022-08-14T15:50:11.457Z,100891.59
2022-08-14T15:52:42.972Z,100887.69
2022-08-14T15:55:16.808Z,100876.28
2022-08-14T15:58:01.713Z,100873.16
2022-08-14T16:00:54.703Z,100872.91
2022-08-14T16:03:34.701Z,100871.66
2022-08-14T16:06:15.680Z,100862.06
2022-08-14T16:08:57.654Z,100852.50
2022-08-14T16:11:33.147Z,100859.00
2022-08-14T16:14:06.842Z,100864.78
2022-08-14T16:16:51.749Z,100850.69
2022-08-14T16:19:29.056Z,100854.88
2022-08-14T16:22:57.367Z,100860.78
2022-08-14T16:25:09.402Z,100846.44
2022-08-14T16:27:41.357Z,100835.81
2022-08-14T16:30:20.782Z,100821.03
2022-08-14T16:33:04.133Z,100821.94
2022-08-14T16:35:59.502Z,100819.03
2022-08-14T16:38:45.688Z,100809.19
2022-08-14T16:41:23.094Z,100799.41
2022-08-14T16:44:23.204Z,100810.06
2022-08-14T16:47:05.467Z,100796.91
2022-08-14T16:50:04.465Z,100785.19
2022-08-14T16:52:44.255Z,100786.06
2022-08-14T16:55:17.829Z,100782.56
2022-08-14T16:57:58.916Z,100777.06
2022-08-14T17:00:44.304Z,100768.66
2022-08-14T17:03:16.384Z,100767.88
2022-08-14T17:05:46.865Z,100769.91
2022-08-14T17:08:42.836Z,100759.59
2022-08-14T17:11:14.390Z,100764.66
2022-08-14T17:13:58.155Z,100747.78
2022-08-14T17:16:39.695Z,100738.38
2022-08-14T17:19:14.241Z,100741.72
2022-08-14T17:21:47.881Z,100728.81
2022-08-14T17:24:57.229Z,100717.53
2022-08-14T17:27:18.131Z,100722.59
2022-08-14T17:29:56.403Z,100717.81
2022-08-14T17:32:44.112Z,100710.59
2022-08-14T17:35:17.144Z,100699.41
2022-08-14T17:37:56.051Z,100698.13
2022-08-14T17:40:31.751Z,100688.78
2022-08-14T17:43:02.782Z,100685.34
2022-08-14T17:45:41.610Z,100682.50
2022-08-14T17:49:13.847Z,100675.56
2022-08-14T17:51:30.066Z,100664.28
2022-08-14T17:54:02.356Z,100654.03
2022-08-14T17:56:38.650Z,100658.69
2022-08-14T17:59:08.966Z,100662.81
2022-08-14T18:01:45.913Z,100655.63
2022-08-14T18:04:24.971Z,100654.94
2022-08-14T18:07:49.263Z,100646.44
2022-08-14T18:10:55.306Z,100647.59
2022-08-14T18:12:53.015Z,100644.63
2022-08-14T18:15:36.921Z,100649.81
2022-08-14T18:18:10.301Z,100649.47
2022-08-14T18:21:39.966Z,100641.44
2022-08-14T18:23:32.746Z,100636.03
2022-08-14T18:26:37.573Z,100636.88
2022-08-14T18:29:07.630Z,100635.06
2022-08-14T18:31:45.596Z,100626.59
2022-08-14T18:34:32.117Z,100625.22
2022-08-14T18:37:17.610Z,100621.75
2022-08-14T18:40:02.863Z,100628.88
2022-08-14T18:42:36.879Z,100625.94
2022-08-14T18:45:12.841Z,100622.91
2022-08-14T18:50:52.794Z,100624.09
2022-08-14T18:53:25.474Z,100628.31
2022-08-14T18:56:09.954Z,100616.28
2022-08-14T18:58:57.017Z,100626.97
2022-08-14T19:01:31.228Z,100619.03
2022-08-14T19:04:04.091Z,100625.97
2022-08-14T19:06:41.806Z,100620.38
2022-08-14T19:09:51.038Z,100618.72
2022-08-14T19:12:54.979Z,100618.13
2022-08-14T19:15:35.347Z,100623.47
2022-08-14T19:18:26.677Z,100614.28
2022-08-14T19:21:13.174Z,100601.75
2022-08-14T19:23:59.333Z,100603.81
2022-08-14T19:26:36.174Z,100590.75
2022-08-14T19:29:39.785Z,100581.44
2022-08-14T19:32:40.454Z,100568.16
2022-08-14T19:35:48.855Z,100577.78
2022-08-14T19:38:46.145Z,100572.84
2022-08-14T19:41:17.398Z,100568.38
2022-08-14T19:43:56.110Z,100565.44
2022-08-14T19:46:38.962Z,100572.72
2022-08-14T19:50:07.955Z,100573.63
2022-08-14T19:52:24.646Z,100584.47
2022-08-14T19:54:56.059Z,100573.03
2022-08-14T19:57:29.032Z,100564.28
2022-08-14T20:00:28.093Z,100565.72
2022-08-14T20:03:11.706Z,100571.19
2022-08-14T20:05:47.450Z,100568.97
2022-08-14T20:09:05.043Z,100582.47
2022-08-14T20:12:00.168Z,100584.97
2022-08-14T20:14:29.378Z,100570.53
2022-08-14T20:17:05.948Z,100588.75
2022-08-14T20:19:41.732Z,100603.91
2022-08-14T20:22:37.193Z,100601.56
2022-08-14T20:25:21.588Z,100590.72
2022-08-14T20:27:59.279Z,100588.06
2022-08-14T20:30:33.777Z,100586.81
2022-08-14T20:33:10.910Z,100577.88
2022-08-14T20:35:53.687Z,100577.59
2022-08-14T20:38:33.345Z,100591.94
2022-08-14T20:41:12.307Z,100579.69
2022-08-14T20:44:06.654Z,100580.84
2022-08-14T20:46:39.527Z,100576.00
2022-08-14T20:49:18.744Z,100576.91
2022-08-14T20:51:59.429Z,100574.19
2022-08-14T20:54:36.917Z,100574.66
2022-08-14T20:57:19.530Z,100575.28
2022-08-14T20:59:57.263Z,100574.69
2022-08-14T21:02:34.727Z,100572.28
2022-08-14T21:05:20.237Z,100577.69
2022-08-14T21:07:51.751Z,100584.00
2022-08-14T21:10:33.093Z,100588.88
2022-08-14T21:13:25.907Z,100590.22
2022-08-14T21:15:58.718Z,100588.09
2022-08-14T21:18:31.839Z,100588.44
2022-08-14T21:21:08.437Z,100588.03
2022-08-14T21:23:54.673Z,100585.50
2022-08-14T21:26:50.681Z,100585.66
2022-08-14T21:29:25.302Z,100583.06
2022-08-14T21:31:56.795Z,100574.69
2022-08-14T21:34:31.267Z,100583.47
2022-08-14T21:37:09.726Z,100572.44
2022-08-14T21:39:40.297Z,100559.78
2022-08-14T21:42:13.692Z,100572.72
2022-08-14T21:44:50.873Z,100584.59
2022-08-14T21:47:23.627Z,100579.84
2022-08-14T21:49:56.361Z,100576.56
2022-08-14T21:52:51.584Z,100578.34
2022-08-14T21:55:23.928Z,100573.09
2022-08-14T21:58:04.062Z,100570.22
2022-08-14T22:00:44.424Z,100571.25
2022-08-14T22:03:24.281Z,100563.59
2022-08-14T22:05:58.555Z,100577.91
2022-08-14T22:08:32.099Z,100555.69
2022-08-14T22:11:03.677Z,100553.84
2022-08-14T22:13:35.132Z,100555.50
2022-08-14T22:17:01.943Z,100531.44
2022-08-14T22:19:10.706Z,100565.81
2022-08-14T22:21:46.699Z,100552.97
2022-08-14T22:24:38.293Z,100547.56
2022-08-14T22:27:12.535Z,100549.09
2022-08-14T22:29:44.253Z,100549.25
2022-08-14T22:32:14.400Z,100551.31
2022-08-14T22:34:48.637Z,100546.75
2022-08-14T22:37:18.726Z,100544.66
2022-08-14T22:40:54.894Z,100556.25
2022-08-14T22:42:57.364Z,100559.94
2022-08-14T22:45:36.278Z,100549.47
2022-08-14T22:48:11.521Z,100549.84
2022-08-14T22:50:53.187Z,100549.84
2022-08-14T22:53:23.900Z,100546.53
2022-08-14T22:56:00.159Z,100542.72
2022-08-14T22:58:34.931Z,100550.91
2022-08-14T23:01:11.897Z,100561.44
2022-08-14T23:03:43.879Z,100561.44
2022-08-14T23:07:02.435Z,100547.84
2022-08-14T23:09:36.040Z,100550.44
2022-08-14T23:11:58.288Z,100546.22
2022-08-14T23:14:31.037Z,100555.19
2022-08-14T23:17:02.035Z,100548.34
2022-08-14T23:19:35.774Z,100551.44
2022-08-14T23:22:10.273Z,100542.63
2022-08-14T23:24:49.625Z,100541.91
2022-08-14T23:27:20.860Z,100545.09
2022-08-14T23:29:58.655Z,100546.41
2022-08-14T23:32:30.294Z,100544.72
2022-08-14T23:35:02.099Z,100562.75
2022-08-14T23:37:32.531Z,100567.19
2022-08-14T23:40:03.160Z,100572.63
2022-08-14T23:43:12.441Z,100572.78
2022-08-14T23:45:50.219Z,100570.53
2022-08-14T23:48:24.821Z,100584.13
2022-08-14T23:51:00.182Z,100587.78
2022-08-14T23:53:47.964Z,100604.78
2022-08-14T23:56:33.289Z,100610.84
2022-08-14T23:59:07.806Z,100614.63
